EW7695 Weather Reports


Display with metric or nautical units.
time (UTC)temp
F
wind
direction
speed
MPH
gust
MPH
rain 1hr
in
rain 24hr
in
rain mn
in
humidity
%
barometer
mb
20240224071604 30 96 0.0 0.0 0.00 0.00 0.00 62 1029.5
20240224070058 31 96 0.0 0.0 0.00 0.00 0.00 60 1029.7
20240224064607 32 96 0.0 0.0 0.00 0.00 0.00 59 1029.7
20240224063057 32 115 0.0 1.0 0.00 0.00 0.00 60 1029.6
20240224061552 32 77 0.0 1.0 0.00 0.00 0.00 59 1029.7
20240224060053 32 100 0.0 0.0 0.00 0.00 0.00 58 1029.6
20240224054559 34 50 0.0 1.0 0.00 0.00 0.00 55 1029.6
20240224053051 34 95 0.0 2.0 0.00 0.00 0.00 55 1029.6
20240224051551 34 108 0.0 4.0 0.00 0.00 0.00 55 1029.7
20240224050051 34 100 1.0 3.0 0.00 0.00 0.00 56 1029.7
20240224044550 34 88 0.0 3.0 0.00 0.00 0.00 55 1029.8
20240224043049 34 89 0.0 3.0 0.00 0.00 0.00 55 1029.9
20240224041556 34 86 0.0 1.0 0.00 0.00 0.00 54 1029.8
20240224040055 34 81 0.0 1.0 0.00 0.00 0.00 54 1029.8
20240224034547 35 89 0.0 1.0 0.00 0.00 0.00 52 1029.7
20240224033050 36 79 0.0 1.0 0.00 0.00 0.00 51 1029.6
20240224031607 36 93 0.0 1.0 0.00 0.00 0.00 50 1029.6
20240224030047 37 77 0.0 2.0 0.00 0.00 0.00 49 1029.6
20240224024546 38 101 1.0 4.0 0.00 0.00 0.00 48 1029.5
20240224023050 37 129 0.0 1.0 0.00 0.00 0.00 51 1029.4
20240224021556 38 356 0.0 0.0 0.00 0.00 0.00 47 1029.3
20240224020047 39 356 0.0 0.0 0.00 0.00 0.00 46 1029.1
20240224014544 40 356 0.0 0.0 0.00 0.00 0.00 44 1029.0
20240224013049 42 356 0.0 0.0 0.00 0.00 0.00 40 1028.8
20240224011544 43 299 0.0 0.0 0.00 0.00 0.00 37 1028.8
20240224010055 45 299 0.0 0.0 0.00 0.00 0.00 34 1028.8
20240224004541 47 299 0.0 0.0 0.00 0.00 0.00 31 1028.9
20240224003045 49 299 0.0 0.0 0.00 0.00 0.00 30 1028.8
20240224001553 50 298 0.0 0.0 0.00 0.00 0.00 27 1028.8
20240224000045 51 298 0.0 0.0 0.00 0.00 0.00 26 1028.7
20240223234542 52 298 0.0 0.0 0.00 0.00 0.00 24 1028.7
20240223233038 53 299 0.0 2.0 0.00 0.00 0.00 23 1028.8
20240223231537 53 251 0.0 1.0 0.00 0.00 0.00 21 1028.9
20240223230037 54 235 0.0 3.0 0.00 0.00 0.00 21 1028.8
20240223224539 55 229 0.0 3.0 0.00 0.00 0.00 22 1028.9
20240223223037 55 237 0.0 4.0 0.00 0.00 0.00 22 1029.0
20240223221534 55 192 0.0 3.0 0.00 0.00 0.00 23 1028.9
20240223220056 55 158 0.0 3.0 0.00 0.00 0.00 23 1029.0
20240223214531 55 205 0.0 2.0 0.00 0.00 0.00 26 1029.1
20240223213028 55 233 1.0 4.0 0.00 0.00 0.00 26 1029.2
20240223211527 54 296 0.0 4.0 0.00 0.00 0.00 28 1029.3
20240223210028 55 236 1.0 5.0 0.00 0.00 0.00 28 1029.6
20240223204544 55 240 0.0 3.0 0.00 0.00 0.00 28 1029.9
20240223203023 54 239 0.0 4.0 0.00 0.00 0.00 30 1030.3
20240223201517 54 197 0.0 5.0 0.00 0.00 0.00 32 1030.7
20240223200017 53 229 1.0 4.0 0.00 0.00 0.00 32 1031.1
20240223194511 53 311 0.0 3.0 0.00 0.00 0.00 34 1031.5
20240223193017 52 311 1.0 4.0 0.00 0.00 0.00 36 1031.9
20240223191508 51 181 0.0 5.0 0.00 0.00 0.00 36 1032.3
20240223190010 52 290 0.0 3.0 0.00 0.00 0.00 36 1032.7
20240223184506 51 217 0.0 3.0 0.00 0.00 0.00 38 1032.9
20240223183100 49 212 0.0 5.0 0.00 0.00 0.00 40 1033.1
20240223181559 49 333 0.0 3.0 0.00 0.00 0.00 41 1033.2
20240223180104 47 311 0.0 5.0 0.00 0.00 0.00 43 1033.3
20240223174553 46 311 1.0 4.0 0.00 0.00 0.00 45 1033.4
20240223173052 46 220 0.0 2.0 0.00 0.00 0.00 46 1033.5
20240223171600 45 242 0.0 4.0 0.00 0.00 0.00 45 1033.6
20240223170051 44 271 0.0 2.0 0.00 0.00 0.00 48 1033.7
20240223164546 43 307 0.0 2.0 0.00 0.00 0.00 48 1033.8
20240223163043 42 303 0.0 0.0 0.00 0.00 0.00 53 1033.8
20240223161542 41 305 0.0 2.0 0.00 0.00 0.00 52 1033.7
20240223160038 39 283 0.0 1.0 0.00 0.00 0.00 55 1033.7
20240223154536 39 79 0.0 0.0 0.00 0.00 0.00 60 1033.6
20240223153032 35 78 0.0 1.0 0.00 0.00 0.00 68 1033.5
20240223151527 31 78 0.0 2.0 0.00 0.00 0.00 75 1033.4
20240223150033 26 78 0.0 0.0 0.00 0.00 0.00 84 1033.3
20240223144538 23 68 0.0 0.0 0.00 0.00 0.00 83 1033.2
20240223143020 22 68 0.0 0.0 0.00 0.00 0.00 80 1032.9
20240223141526 23 68 0.0 0.0 0.00 0.00 0.00 79 1032.4
20240223140017 24 65 0.0 1.0 0.00 0.00 0.00 78 1032.4
20240223134516 24 114 0.0 0.0 0.00 0.00 0.00 79 1032.2
20240223133011 25 83 0.0 0.0 0.00 0.00 0.00 79 1032.2
20240223131509 25 97 0.0 0.0 0.00 0.00 0.00 77 1032.0
20240223130009 25 104 0.0 1.0 0.00 0.00 0.00 78 1031.9
20240223124517 26 86 0.0 0.0 0.00 0.00 0.00 75 1031.9
20240223123007 26 109 0.0 1.0 0.00 0.00 0.00 78 1031.8
20240223121505 25 86 0.0 0.0 0.00 0.00 0.00 77 1031.7
20240223120002 26 86 0.0 1.0 0.00 0.00 0.00 76 1031.8
20240223114600 26 89 0.0 0.0 0.00 0.00 0.00 76 1031.7
20240223113101 26 89 0.0 0.0 0.00 0.00 0.00 76 1031.7
20240223111617 26 100 0.0 0.0 0.00 0.00 0.00 76 1031.5
20240223110058 27 88 0.0 0.0 0.00 0.00 0.00 75 1031.5
20240223104559 27 93 0.0 1.0 0.00 0.00 0.00 74 1031.3
20240223103055 27 108 0.0 2.0 0.00 0.00 0.00 75 1031.3
20240223101608 27 72 0.0 1.0 0.00 0.00 0.00 76 1031.3
20240223100104 27 88 0.0 0.0 0.00 0.00 0.00 74 1031.1
20240223094550 27 98 0.0 1.0 0.00 0.00 0.00 75 1031.0
20240223093051 26 77 0.0 0.0 0.00 0.00 0.00 77 1030.9
20240223091551 26 94 0.0 0.0 0.00 0.00 0.00 76 1030.9
20240223090043 27 94 0.0 0.0 0.00 0.00 0.00 74 1030.8
20240223084539 27 94 0.0 1.0 0.00 0.00 0.00 73 1030.7
20240223083036 28 103 0.0 0.0 0.00 0.00 0.00 72 1030.4
20240223081533 29 90 0.0 0.0 0.00 0.00 0.00 69 1030.2
20240223080036 29 90 0.0 1.0 0.00 0.00 0.00 70 1030.0
20240223074530 29 90 0.0 0.0 0.00 0.00 0.00 69 1030.1
20240223073029 30 90 0.0 0.0 0.00 0.00 0.00 68 1030.0